WetterOnline ( https://www.wetteronline.de )

Wetter aktuell Wallerfangen

Aktuelles Wetter: Berus (367m)

6-stündlich | Neueste Meldungen
Ortszeit Temperatur Wetter
Sa, 13.04. 8:00 11.0° C wolkig
Sa, 13.04. 2:00 12.9° C wolkig
Fr, 12.04. 20:00 15.9° C wolkig
Fr, 12.04. 14:00 17.0° C bedeckt
Fr, 12.04. 8:00 10.9° C leicht bewölkt
Fr, 12.04. 2:00 11.1° C wolkig
Do, 11.04. 20:00 14.0° C wolkig
Do, 11.04. 14:00 14.3° C wolkig
Ortszeit Temperatur Wetter
Sa, 13.04. 8:30 11.4° C wolkig
Sa, 13.04. 8:20 11.4° C wolkig
Sa, 13.04. 8:10 10.4° C bedeckt
Sa, 13.04. 8:00 11.0° C wolkig
Sa, 13.04. 7:50 11.0° C wolkig
Sa, 13.04. 7:40 11.7° C bedeckt
Sa, 13.04. 7:30 11.1° C wolkig
Sa, 13.04. 7:00 10.5° C leicht bewölkt
Sa, 13.04. 6:30 11.1° C leicht bewölkt
Sa, 13.04. 6:00 10.5° C wolkig
Sa, 13.04. 5:30 10.8° C wolkig
Ortszeit Relative Feuchte Sichtweite
Sa, 13.04. 8:00 89% 14 km
Sa, 13.04. 2:00 82% 60 km
Fr, 12.04. 20:00 69% 55 km
Fr, 12.04. 14:00 63% 45 km
Fr, 12.04. 8:00 87% 50 km
Fr, 12.04. 2:00 72% 55 km
Do, 11.04. 20:00 58% >70 km
Do, 11.04. 14:00 40% >70 km
Ortszeit Relative Feuchte Sichtweite
Sa, 13.04. 8:30 90% 21 km
Sa, 13.04. 8:20 90% -
Sa, 13.04. 8:10 92% -
Sa, 13.04. 8:00 89% 14 km
Sa, 13.04. 7:50 89% -
Sa, 13.04. 7:40 89% -
Sa, 13.04. 7:30 92% 17 km
Sa, 13.04. 7:00 92% 13 km
Sa, 13.04. 6:30 92% 25 km
Sa, 13.04. 6:00 94% 12 km
Sa, 13.04. 5:30 92% 11 km
Ortszeit Niederschlagsmenge Niederschlagsart
Sa, 13.04. 8:00 0.0 l/m2 in 12 Std. -
Sa, 13.04. 2:00 0.0 l/m2 in 6 Std. -
Fr, 12.04. 20:00 0.0 l/m2 in 12 Std. -
Fr, 12.04. 14:00 0.0 l/m2 in 6 Std. -
Fr, 12.04. 8:00 0.0 l/m2 in 12 Std. -
Fr, 12.04. 2:00 0.0 l/m2 in 6 Std. -
Do, 11.04. 20:00 0.0 l/m2 in 12 Std. -
Do, 11.04. 14:00 0.0 l/m2 in 6 Std. -
Ortszeit Niederschlagsmenge Niederschlagsart
Sa, 13.04. 8:30 0.0 l/m2 in 30 Min -
Sa, 13.04. 8:20 keine Meldung -
Sa, 13.04. 8:10 keine Meldung -
Sa, 13.04. 8:00 0.0 l/m2 in 1 Std. -
Sa, 13.04. 7:50 keine Meldung -
Sa, 13.04. 7:40 keine Meldung -
Sa, 13.04. 7:30 0.0 l/m2 in 30 Min -
Sa, 13.04. 7:00 0.0 l/m2 in 1 Std. -
Sa, 13.04. 6:30 0.0 l/m2 in 30 Min -
Sa, 13.04. 6:00 0.0 l/m2 in 1 Std. -
Sa, 13.04. 5:30 0.0 l/m2 in 30 Min -
Ortszeit Stärke Spitze Richtung
km/h Bft. km/h Grad Sektor
Sa, 13.04. 8:00 4 1 7 130° SO
Sa, 13.04. 2:00 6 1 17 230° SW
Fr, 12.04. 20:00 9 2 22 360° N
Fr, 12.04. 14:00 4 1 18 10° N
Fr, 12.04. 8:00 4 1 14 40° NO
Fr, 12.04. 2:00 7 2 11 300° NW
Do, 11.04. 20:00 4 1 18 340° N
Do, 11.04. 14:00 7 2 19 200° S
Ortszeit Stärke Spitze Richtung
km/h Bft. km/h Grad Sektor
Sa, 13.04. 8:30 4 1 7 90° O
Sa, 13.04. 8:20 4 1 - 90° O
Sa, 13.04. 8:10 6 1 - 60° NO
Sa, 13.04. 8:00 4 1 7 130° SO
Sa, 13.04. 7:50 4 1 - 130° SO
Sa, 13.04. 7:40 4 1 - 160° S
Sa, 13.04. 7:30 4 1 7 160° S
Sa, 13.04. 7:00 4 1 7 140° SO
Sa, 13.04. 6:30 6 1 7 170° S
Sa, 13.04. 6:00 4 1 7 110° O
Sa, 13.04. 5:30 7 2 7 40° NO
Ortszeit Untergrenze Bedeckung Gattung
total tief tief mittel hoch
Sa, 13.04. 8:00 7800 m 8/8 0/8 - - -
Sa, 13.04. 2:00 8100 m 8/8 0/8 - - -
Fr, 12.04. 20:00 7500 m 8/8 0/8 - - -
Fr, 12.04. 14:00 780 m 8/8 8/8 - - -
Fr, 12.04. 8:00 630 m 2/8 2/8 - - -
Fr, 12.04. 2:00 7500 m 8/8 0/8 - - -
Do, 11.04. 20:00 4500 m 7/8 4/8 - - -
Do, 11.04. 14:00 4800 m 8/8 8/8 - - -
Ortszeit Bedeckungsgrad in Achtel und Wolkenuntergrenze
Sa, 13.04. 8:30 2(7800m) 8(9000m)
Sa, 13.04. 8:20 2(7800m) 8(9000m)
Sa, 13.04. 8:10 8
Sa, 13.04. 8:00 1(7800m) 8(9000m) 8(10500m)
Sa, 13.04. 7:50 1(7800m) 8(9000m) 8(10500m)
Sa, 13.04. 7:40 8
Sa, 13.04. 7:30 8(9000m) 8(10500m)
Sa, 13.04. 7:00 1(7500m) 5(9000m) 6(9000m)
Sa, 13.04. 6:30 3(7500m) 3(8400m)
Sa, 13.04. 6:00 2(7500m) 6(8400m) 7(10500m)
Sa, 13.04. 5:30 5(7200m) 8(8400m) 8(9000m)
Ortszeit Luftdruck NN (hPa) Tendenz (hPa in 3 Std.)
Sa, 13.04. 8:00 1030 - 0,2
Sa, 13.04. 2:00 1031 - 0,4
Fr, 12.04. 20:00 1031 - 0,7
Fr, 12.04. 14:00 1033 - 0,4
Fr, 12.04. 8:00 1034 0,0
Fr, 12.04. 2:00 1034 + 0,2
Do, 11.04. 20:00 1033 - 0,3
Do, 11.04. 14:00 1034 + 0,1
Ortszeit Luftdruck NN (hPa) Tendenz (hPa in 3 Std.)
Sa, 13.04. 8:30 1030 - 0,1
Sa, 13.04. 8:20 1030 keine Meldung
Sa, 13.04. 8:10 1030 keine Meldung
Sa, 13.04. 8:00 1030 - 0,2
Sa, 13.04. 7:50 1030 keine Meldung
Sa, 13.04. 7:40 1030 keine Meldung
Sa, 13.04. 7:30 1030 - 0,4
Sa, 13.04. 7:00 1030 - 0,5
Sa, 13.04. 6:30 1030 - 0,6
Sa, 13.04. 6:00 1030 - 0,7
Sa, 13.04. 5:30 1030 - 0,7
Ortszeit Schneehöhe (cm)
Sa, 13.04. 8:00 0
Sa, 13.04. 2:00 0
Fr, 12.04. 20:00 0
Fr, 12.04. 14:00 0
Fr, 12.04. 8:00 0
Fr, 12.04. 2:00 0
Do, 11.04. 20:00 0
Do, 11.04. 14:00 0
Ortszeit Schneehöhe (cm)
Sa, 13.04. 8:30 0
Sa, 13.04. 8:20 0
Sa, 13.04. 8:10 -
Sa, 13.04. 8:00 0
Sa, 13.04. 7:50 0
Sa, 13.04. 7:40 -
Sa, 13.04. 7:30 0
Sa, 13.04. 7:00 0
Sa, 13.04. 6:30 0
Sa, 13.04. 6:00 0
Sa, 13.04. 5:30 0
Link zu dieser Seite / Seite empfehlen

Das Wetter in ...